TimeCDT,TemperatureF,Dew PointF,Humidity,Sea Level PressureIn,VisibilityMPH,Wind Direction,Wind SpeedMPH,Gust SpeedMPH,PrecipitationIn,Events,Conditions,WindDirDegrees,DateUTC
1:53 AM,69.1,64.0,84,29.81,10.0,South,10.4,-,N/A,,Mostly Cloudy,190,2012-10-23 06:53:00
2:53 AM,69.1,64.9,87,29.79,10.0,South,15.0,21.9,N/A,,Overcast,190,2012-10-23 07:53:00
3:53 AM,70.0,64.9,84,29.78,10.0,South,13.8,25.3,N/A,,Overcast,190,2012-10-23 08:53:00
5:53 AM,71.1,66.0,84,29.78,10.0,SSW,12.7,18.4,N/A,,Overcast,200,2012-10-23 10:53:00
6:53 AM,71.1,64.9,81,29.78,10.0,South,11.5,17.3,N/A,,Overcast,180,2012-10-23 11:53:00
7:53 AM,70.0,64.9,84,29.78,10.0,South,11.5,-,N/A,,Overcast,170,2012-10-23 12:53:00
8:53 AM,69.1,64.9,87,29.80,9.0,SSE,8.1,-,N/A,,Overcast,150,2012-10-23 13:53:00
9:53 AM,69.1,64.0,84,29.79,10.0,SSE,11.5,-,N/A,,Overcast,150,2012-10-23 14:53:00
10:53 AM,71.1,64.9,81,29.78,10.0,South,13.8,-,N/A,,Overcast,180,2012-10-23 15:53:00
11:53 AM,73.0,64.9,76,29.77,10.0,SSW,13.8,21.9,N/A,,Overcast,200,2012-10-23 16:53:00
12:53 PM,73.9,64.9,73,29.75,10.0,South,18.4,26.5,N/A,,Overcast,190,2012-10-23 17:53:00
1:53 PM,75.9,64.9,69,29.73,10.0,SSW,12.7,25.3,N/A,,Mostly Cloudy,200,2012-10-23 18:53:00
2:53 PM,77.0,64.9,66,29.71,10.0,SSW,17.3,28.8,N/A,,Mostly Cloudy,210,2012-10-23 19:53:00
3:53 PM,78.1,64.9,64,29.70,10.0,SSW,19.6,26.5,N/A,,Scattered Clouds,200,2012-10-23 20:53:00
4:53 PM,75.9,64.0,67,29.71,10.0,South,12.7,21.9,N/A,,Partly Cloudy,190,2012-10-23 21:53:00
6:53 PM,73.0,64.0,73,29.74,10.0,South,15.0,20.7,N/A,,Partly Cloudy,180,2012-10-23 23:53:00
7:53 PM,72.0,64.0,76,29.75,10.0,South,13.8,-,N/A,,Clear,180,2012-10-24 00:53:00
8:53 PM,71.1,64.9,81,29.76,10.0,South,16.1,23.0,N/A,,Clear,180,2012-10-24 01:53:00
9:53 PM,71.1,64.9,81,29.78,10.0,South,12.7,20.7,N/A,,Mostly Cloudy,180,2012-10-24 02:53:00
10:37 PM,71.6,64.4,78,29.81,10.0,South,12.7,20.7,N/A,,Partly Cloudy,190,2012-10-24 03:37:00
10:53 PM,71.1,64.9,81,29.78,10.0,South,12.7,-,N/A,,Scattered Clouds,180,2012-10-24 03:53:00
11:25 PM,71.6,64.4,78,29.81,10.0,South,12.7,25.3,N/A,,Mostly Cloudy,190,2012-10-24 04:25:00
11:53 PM,72.0,64.9,78,29.78,10.0,South,13.8,27.6,N/A,,Overcast,190,2012-10-24 04:53:00